Accueil
Images satellite Prévisions 15 joursClimatMétéo marine Cyclones Foudre AéroportsFAQ Actualités A propos
Météo : Europe Afrique Amérique du Nord Amérique du Sud Asie Australie-Océanie Autres
Langues Contact

Carcassonne, France

Salvaza

latitude: 43-13N, longitude: 002-19E, altitude: 130 m


METAR: LFMK 311530Z AUTO 09014KT 9999 NSC 19/13 Q1022
TAF: LFMK 311100Z 3112/0112 09010KT 9999 NSC TEMPO 3112/0112 1200 BR OVC003 PROB40 TEMPO 3112/0112 0200 FG VV///

Heure: 17:09 (16:09 UTC)

Observation

Le bulletin a été fait il y a 39 minutes, à 15:30 UTC
Vent 14 kt de est
Température 19°C
Humidité 68%
Pression 1022 hPa
Visibilité 10 km ou plus

Changer d'unités

Prévision

Le bulletin a été fait il y a 5 heures et 9 minutes, à 11:00 UTC
Prévision valable du 31 à 12 UTC au 01 à 12 UTC
Vent 10 kt de est
Visibilité 10 km ou plus
Temporairement
du 31 à 12 UTC au 01 à 12 UTC
Visibilité: 1200 m
Ciel couvert à une hauteur de 300 ft
brume
Probabilité 40% :
Temporairement
du 31 à 12 UTC au 01 à 12 UTC
Visibilité: 0200 m
brouillard
Les informations qui figurent sur ce site font l'objet d'une clause de non-responsabilité
Météo : Europe Afrique Amérique du Nord Amérique du Sud Asie Australie-Océanie Autres
Images satellite Prévisions 15 joursClimatMétéo marine Cyclones Foudre AéroportsFAQ Langues Contact Actualités A propos